Time;durP1;ratioP1;P1;durP2;ratioP2;P2;SDS_P1;SDS_P2;PMS_P1;PMS_P2;Temp;Humidity;BMP_temperature;BMP_pressure;BME280_temperature;BME280_humidity;BME280_pressure;Samples;Min_cycle;Max_cycle;Signal;HPM_P1;HPM_P2
2021/01/04 00:01:15;;;;;;;28.77;15.93;;;3.70;76.40;;;;;;4982095;28;20030;-67
2021/01/04 00:04:27;;;;;;;31.80;16.83;;;3.70;76.30;;;;;;4980916;28;20162;-66
2021/01/04 00:07:09;;;;;;;30.05;16.02;;;3.70;76.40;;;;;;4976300;28;20041;-65
2021/01/04 00:10:05;;;;;;;32.92;17.65;;;3.70;76.40;;;;;;4983966;28;20104;-65
2021/01/04 00:12:37;;;;;;;31.83;17.48;;;3.70;76.30;;;;;;4989390;28;20034;-66
2021/01/04 00:15:09;;;;;;;31.23;16.70;;;3.70;77.10;;;;;;4980852;28;20117;-66
2021/01/04 00:17:59;;;;;;;30.63;16.48;;;3.70;76.20;;;;;;4983839;28;20129;-66
2021/01/04 00:21:05;;;;;;;30.00;16.48;;;3.70;76.30;;;;;;4978494;28;20045;-66
2021/01/04 00:23:55;;;;;;;30.77;16.55;;;3.70;76.20;;;;;;4979660;28;20517;-67
2021/01/04 00:26:33;;;;;;;31.00;16.25;;;3.70;76.20;;;;;;4980669;28;20065;-66
2021/01/04 00:28:59;;;;;;;32.05;17.40;;;3.60;76.10;;;;;;4980908;28;20510;-65
2021/01/04 00:31:28;;;;;;;30.00;16.10;;;3.70;76.20;;;;;;4980827;28;20550;-64
2021/01/04 00:34:02;;;;;;;33.95;16.73;;;3.60;76.20;;;;;;4980059;28;20548;-64
2021/01/04 00:36:53;;;;;;;29.33;16.03;;;3.60;76.30;;;;;;4978821;28;20046;-66
2021/01/04 00:39:46;;;;;;;32.38;16.58;;;3.70;76.40;;;;;;4968789;28;20108;-63
2021/01/04 00:42:34;;;;;;;28.63;16.17;;;3.70;76.30;;;;;;4978549;28;20031;-66
2021/01/04 00:45:18;;;;;;;32.60;16.52;;;3.70;76.20;;;;;;4979364;28;20030;-66
2021/01/04 00:48:07;;;;;;;28.85;16.55;;;3.70;76.20;;;;;;4980480;28;20039;-65
2021/01/04 00:50:58;;;;;;;29.38;16.58;;;3.60;76.20;;;;;;4977788;28;20129;-65
2021/01/04 00:53:33;;;;;;;32.90;17.40;;;3.60;76.10;;;;;;4980152;28;20027;-65
2021/01/04 00:56:24;;;;;;;32.30;17.38;;;3.60;75.90;;;;;;4979364;28;20561;-67
2021/01/04 00:59:06;;;;;;;35.42;17.85;;;3.60;76.00;;;;;;4979156;28;20109;-66
2021/01/04 01:02:03;;;;;;;31.55;17.23;;;3.60;75.90;;;;;;4992314;28;20039;-66
2021/01/04 01:04:35;;;;;;;34.88;18.67;;;3.60;75.90;;;;;;4968289;28;20070;-66
2021/01/04 01:07:16;;;;;;;33.17;17.98;;;3.50;75.90;;;;;;4979681;28;20449;-66
2021/01/04 01:09:49;;;;;;;34.85;17.90;;;3.50;76.00;;;;;;4979546;28;20042;-66
2021/01/04 01:12:21;;;;;;;34.83;17.95;;;3.50;76.10;;;;;;4979988;28;20093;-67
2021/01/04 01:15:07;;;;;;;33.70;17.40;;;3.40;76.20;;;;;;4979673;28;20077;-66
2021/01/04 01:17:42;;;;;;;32.10;17.08;;;3.40;76.40;;;;;;4979927;28;20061;-65
2021/01/04 01:20:14;;;;;;;34.13;18.02;;;3.40;76.20;;;;;;4979329;28;20027;-67
2021/01/04 01:22:41;;;;;;;34.97;18.15;;;3.40;76.30;;;;;;4979447;28;20045;-66
2021/01/04 01:25:15;;;;;;;32.28;17.10;;;3.40;76.40;;;;;;4978719;28;20070;-66
2021/01/04 01:28:02;;;;;;;31.50;17.88;;;3.40;76.50;;;;;;4979827;28;20027;-67
2021/01/04 01:30:58;;;;;;;31.63;17.17;;;3.40;76.60;;;;;;4977774;28;20583;-65
2021/01/04 01:33:33;;;;;;;30.13;16.60;;;3.40;76.60;;;;;;4978253;28;20097;-66
2021/01/04 01:36:17;;;;;;;33.95;18.08;;;3.40;76.50;;;;;;4979366;28;20040;-66
2021/01/04 01:39:04;;;;;;;34.17;17.87;;;3.40;76.50;;;;;;4978335;28;20046;-66
2021/01/04 01:41:53;;;;;;;34.92;18.15;;;3.40;76.50;;;;;;4979304;28;20026;-66
2021/01/04 01:44:51;;;;;;;30.33;16.77;;;3.40;76.50;;;;;;4979278;28;20031;-67
2021/01/04 01:47:54;;;;;;;33.13;18.17;;;3.40;76.50;;;;;;4970387;28;20042;-66
2021/01/04 01:50:28;;;;;;;35.10;17.55;;;3.40;76.40;;;;;;4970410;28;20035;-66
2021/01/04 01:53:28;;;;;;;33.72;17.92;;;3.40;76.20;;;;;;4978188;28;20038;-67
2021/01/04 01:56:17;;;;;;;37.47;18.17;;;3.40;76.40;;;;;;4979077;28;20043;-66
2021/01/04 01:59:16;;;;;;;34.97;18.73;;;3.40;76.50;;;;;;4978247;28;20093;-67
2021/01/04 02:02:00;;;;;;;34.17;17.67;;;3.30;76.60;;;;;;4981159;28;20514;-66
2021/01/04 02:04:41;;;;;;;32.35;18.50;;;3.40;76.60;;;;;;4976741;28;20046;-66
2021/01/04 02:07:30;;;;;;;34.75;19.10;;;3.30;76.50;;;;;;4978773;28;20453;-66
2021/01/04 02:10:11;;;;;;;33.28;18.17;;;3.30;76.60;;;;;;4976241;28;20067;-64
2021/01/04 02:12:50;;;;;;;33.88;18.88;;;3.30;76.70;;;;;;4976672;28;20027;-66
2021/01/04 02:15:31;;;;;;;36.47;19.33;;;3.30;76.70;;;;;;4979224;28;20162;-66
2021/01/04 02:18:25;;;;;;;36.33;18.73;;;3.40;76.80;;;;;;4978043;28;20382;-66
2021/01/04 02:21:25;;;;;;;36.65;19.02;;;3.40;76.80;;;;;;4993226;28;20114;-66
2021/01/04 02:24:14;;;;;;;35.53;18.70;;;3.30;76.70;;;;;;4979235;28;20034;-65
2021/01/04 02:26:59;;;;;;;30.92;16.73;;;3.40;76.60;;;;;;4983482;28;20028;-66
2021/01/04 02:29:25;;;;;;;34.60;18.05;;;3.40;76.60;;;;;;4979338;28;20031;-67
2021/01/04 02:31:54;;;;;;;35.75;18.65;;;3.40;76.60;;;;;;4978812;28;20056;-66
2021/01/04 02:34:41;;;;;;;34.90;19.08;;;3.40;76.40;;;;;;4978253;28;20403;-66
2021/01/04 02:37:08;;;;;;;34.90;18.88;;;3.40;76.40;;;;;;4976728;28;20101;-67
2021/01/04 02:39:47;;;;;;;34.08;18.40;;;3.40;76.50;;;;;;4978275;28;20040;-65
2021/01/04 02:42:14;;;;;;;32.45;17.77;;;3.40;76.60;;;;;;4976990;28;20408;-66
2021/01/04 02:44:42;;;;;;;35.13;17.45;;;3.40;76.60;;;;;;4977995;28;20042;-67
2021/01/04 02:47:39;;;;;;;34.70;18.73;;;3.40;76.60;;;;;;4977320;28;20046;-65
2021/01/04 02:50:18;;;;;;;33.47;17.98;;;3.40;76.60;;;;;;4977439;28;20035;-66
2021/01/04 02:53:00;;;;;;;35.50;19.13;;;3.40;76.40;;;;;;4977573;28;20039;-66
2021/01/04 02:55:46;;;;;;;30.98;17.17;;;3.50;76.50;;;;;;4978085;28;20046;-66
2021/01/04 02:58:19;;;;;;;31.27;17.63;;;3.40;76.40;;;;;;4978183;28;20505;-67
2021/01/04 03:00:55;;;;;;;33.92;18.23;;;3.40;76.40;;;;;;4978506;28;20039;-66
2021/01/04 03:03:25;;;;;;;33.67;18.40;;;3.50;76.50;;;;;;4976858;28;20027;-67
2021/01/04 03:05:51;;;;;;;32.38;17.77;;;3.50;76.50;;;;;;4980702;28;20068;-66
2021/01/04 03:08:16;;;;;;;34.17;17.92;;;3.50;76.40;;;;;;4982487;28;20524;-66
2021/01/04 03:10:42;;;;;;;32.85;17.83;;;3.50;76.50;;;;;;4979762;28;20059;-66
2021/01/04 03:13:29;;;;;;;33.35;17.17;;;3.50;76.60;;;;;;4982244;28;20109;-66
2021/01/04 03:15:58;;;;;;;33.55;17.75;;;3.50;76.50;;;;;;4981181;28;20117;-67
2021/01/04 03:18:30;;;;;;;34.60;17.10;;;3.50;76.40;;;;;;4982561;28;20097;-65
2021/01/04 03:20:56;;;;;;;33.22;17.90;;;3.50;76.40;;;;;;4987523;28;20397;-66
2021/01/04 03:23:21;;;;;;;34.92;18.30;;;3.50;76.40;;;;;;4981275;28;20494;-67
2021/01/04 03:25:56;;;;;;;30.67;16.38;;;3.50;76.20;;;;;;4981306;28;20038;-67
2021/01/04 03:28:30;;;;;;;33.60;17.38;;;3.50;76.20;;;;;;4982181;28;20038;-67
2021/01/04 03:30:56;;;;;;;34.28;18.50;;;3.50;76.20;;;;;;4980559;28;20443;-66
2021/01/04 03:33:22;;;;;;;33.28;17.33;;;3.50;76.20;;;;;;4978351;28;20026;-67
2021/01/04 03:35:49;;;;;;;32.95;16.48;;;3.50;76.10;;;;;;4981970;28;20954;-67
2021/01/04 03:38:18;;;;;;;31.33;16.95;;;3.50;76.00;;;;;;4981017;28;20045;-67
2021/01/04 03:40:44;;;;;;;34.42;17.27;;;3.50;76.00;;;;;;4980499;28;20113;-66
2021/01/04 03:43:10;;;;;;;32.53;17.20;;;3.50;76.10;;;;;;4981150;28;20458;-67
2021/01/04 03:45:36;;;;;;;32.95;18.00;;;3.50;76.00;;;;;;4980468;28;20438;-66
2021/01/04 03:48:02;;;;;;;31.02;16.42;;;3.50;76.00;;;;;;4980067;28;20379;-67
2021/01/04 03:50:28;;;;;;;30.13;16.35;;;3.40;75.90;;;;;;4978685;28;20087;-65
2021/01/04 03:52:53;;;;;;;33.78;17.13;;;3.50;76.00;;;;;;4980510;28;20065;-67
2021/01/04 03:55:19;;;;;;;33.17;17.20;;;3.40;75.90;;;;;;4978956;28;20043;-66
2021/01/04 03:57:45;;;;;;;32.67;16.50;;;3.40;75.90;;;;;;4980396;28;20125;-66
2021/01/04 04:00:13;;;;;;;30.83;17.48;;;3.40;75.90;;;;;;4980249;28;20529;-66
2021/01/04 04:02:40;;;;;;;33.33;17.02;;;3.40;76.00;;;;;;4979623;28;20090;-66
2021/01/04 04:05:07;;;;;;;30.30;16.30;;;3.40;76.00;;;;;;4980608;28;20117;-67
2021/01/04 04:07:32;;;;;;;34.33;17.17;;;3.40;76.00;;;;;;4980605;28;20513;-66
2021/01/04 04:09:59;;;;;;;30.35;16.52;;;3.40;75.90;;;;;;4980889;28;20062;-67
2021/01/04 04:12:25;;;;;;;30.73;16.75;;;3.40;75.80;;;;;;4980292;28;20043;-67
2021/01/04 04:14:51;;;;;;;32.95;16.77;;;3.50;75.90;;;;;;4979985;28;20050;-67
2021/01/04 04:17:18;;;;;;;29.85;15.82;;;3.50;76.00;;;;;;4979594;28;20034;-67
2021/01/04 04:19:45;;;;;;;32.95;16.90;;;3.50;75.90;;;;;;4979317;28;20035;-66
2021/01/04 04:22:10;;;;;;;37.53;17.80;;;3.50;75.80;;;;;;4980496;28;20037;-66
2021/01/04 04:24:45;;;;;;;32.90;17.08;;;3.50;75.70;;;;;;4979419;28;20375;-66
2021/01/04 04:27:12;;;;;;;30.95;16.05;;;3.50;75.60;;;;;;4981325;28;20034;-67
2021/01/04 04:29:39;;;;;;;32.88;16.85;;;3.50;75.60;;;;;;4980600;28;20031;-67
2021/01/04 04:32:05;;;;;;;30.80;16.45;;;3.50;75.60;;;;;;4980944;28;20035;-67
2021/01/04 04:34:31;;;;;;;30.42;17.27;;;3.50;75.60;;;;;;4979946;28;20054;-67
2021/01/04 04:36:57;;;;;;;32.25;17.17;;;3.50;75.60;;;;;;4979064;28;20050;-67
2021/01/04 04:39:23;;;;;;;33.63;17.45;;;3.50;75.60;;;;;;4980015;28;20030;-68
2021/01/04 04:41:50;;;;;;;35.22;17.30;;;3.50;75.60;;;;;;4978852;28;20129;-67
2021/01/04 04:44:47;;;;;;;31.60;16.60;;;3.50;75.60;;;;;;4980846;28;20498;-67
2021/01/04 04:47:25;;;;;;;31.88;16.63;;;3.50;75.50;;;;;;4978362;28;20038;-66
2021/01/04 04:49:53;;;;;;;26.48;14.85;;;3.50;75.50;;;;;;4980031;28;20101;-66
2021/01/04 04:52:56;;;;;;;31.63;16.05;;;3.50;75.40;;;;;;4978913;28;20104;-67
2021/01/04 04:55:52;;;;;;;29.05;14.88;;;3.50;75.30;;;;;;4979766;28;20195;-66
2021/01/04 04:58:36;;;;;;;30.55;16.70;;;3.50;75.30;;;;;;4980397;28;20037;-66
2021/01/04 05:01:11;;;;;;;28.48;15.73;;;3.50;75.30;;;;;;4978306;28;20054;-68
2021/01/04 05:03:58;;;;;;;31.05;16.42;;;3.50;75.30;;;;;;4980437;28;20037;-66
2021/01/04 05:06:42;;;;;;;32.78;16.80;;;3.50;75.30;;;;;;4979466;28;20114;-67
2021/01/04 05:09:23;;;;;;;31.95;16.70;;;3.50;75.30;;;;;;4978382;28;20031;-67
2021/01/04 05:12:03;;;;;;;32.08;17.08;;;3.50;75.40;;;;;;4979857;28;20093;-67
2021/01/04 05:14:30;;;;;;;32.78;16.58;;;3.50;75.30;;;;;;4978897;28;20538;-66
2021/01/04 05:17:43;;;;;;;33.70;16.02;;;3.40;75.40;;;;;;4979833;28;20089;-67
2021/01/04 05:20:14;;;;;;;29.58;15.77;;;3.50;75.30;;;;;;4979914;28;20466;-66
2021/01/04 05:23:02;;;;;;;32.50;16.17;;;3.50;75.40;;;;;;4979602;28;20058;-65
2021/01/04 05:25:36;;;;;;;32.72;16.20;;;3.50;75.40;;;;;;4980230;28;20033;-67
2021/01/04 05:28:02;;;;;;;;;;;3.50;75.30;;;;;;4980898;28;20092;-67
2021/01/04 05:30:57;;;;;;;28.98;14.88;;;3.50;75.30;;;;;;4978787;28;19914;-68
2021/01/04 05:33:36;;;;;;;30.45;16.25;;;3.50;75.20;;;;;;4979310;28;20494;-67
2021/01/04 05:36:37;;;;;;;32.67;15.95;;;3.50;75.20;;;;;;4977876;28;20035;-66
2021/01/04 05:39:22;;;;;;;28.27;15.90;;;3.50;75.20;;;;;;4984700;28;20070;-66
2021/01/04 05:42:27;;;;;;;31.30;16.50;;;3.50;75.20;;;;;;4978235;28;20078;-66
2021/01/04 05:45:08;;;;;;;31.33;15.68;;;3.50;75.20;;;;;;4978810;28;20045;-67
2021/01/04 05:48:29;;;;;;;30.80;15.93;;;3.50;75.20;;;;;;4978526;28;20064;-67
2021/01/04 05:51:22;;;;;;;31.05;15.52;;;3.40;75.10;;;;;;4965481;28;20030;-67
2021/01/04 05:53:48;;;;;;;29.98;15.82;;;3.40;75.20;;;;;;4979276;28;20033;-64
2021/01/04 05:56:26;;;;;;;32.05;16.35;;;3.40;75.20;;;;;;4978505;28;20034;-67
2021/01/04 05:58:53;;;;;;;33.25;16.23;;;3.40;75.20;;;;;;4975720;28;20066;-66
2021/01/04 06:01:25;;;;;;;34.80;17.33;;;3.40;75.30;;;;;;4984385;28;20038;-68
2021/01/04 06:04:02;;;;;;;34.97;16.95;;;3.40;75.20;;;;;;4979460;28;20089;-65
2021/01/04 06:06:46;;;;;;;33.22;16.45;;;3.40;75.30;;;;;;4978655;28;20113;-67
2021/01/04 06:09:17;;;;;;;35.10;17.25;;;3.40;75.30;;;;;;4979375;28;20104;-67
2021/01/04 06:11:48;;;;;;;31.83;16.20;;;3.40;75.40;;;;;;4979026;28;20057;-67
2021/01/04 06:14:13;;;;;;;31.40;16.38;;;3.40;75.40;;;;;;4978758;28;20045;-67
2021/01/04 06:16:43;;;;;;;29.92;15.68;;;3.40;75.40;;;;;;4978445;28;20043;-67
2021/01/04 06:19:22;;;;;;;31.85;16.05;;;3.40;75.30;;;;;;4978461;28;20402;-67
2021/01/04 06:21:57;;;;;;;30.63;16.35;;;3.40;75.20;;;;;;4978909;28;20502;-66
2021/01/04 06:24:26;;;;;;;31.95;16.23;;;3.40;75.20;;;;;;4977038;28;20042;-67
2021/01/04 06:26:55;;;;;;;29.80;16.17;;;3.40;75.20;;;;;;4979777;28;20050;-67
2021/01/04 06:29:38;;;;;;;32.63;16.38;;;3.40;75.20;;;;;;4978922;28;20027;-67
2021/01/04 06:32:06;;;;;;;30.52;16.10;;;3.40;75.20;;;;;;4979195;28;20031;-67
2021/01/04 06:34:38;;;;;;;29.67;15.77;;;3.40;75.30;;;;;;4978707;28;20022;-66
2021/01/04 06:37:19;;;;;;;30.65;16.45;;;3.40;75.30;;;;;;4978869;28;20096;-67
2021/01/04 06:40:00;;;;;;;32.83;16.10;;;3.40;75.30;;;;;;4980680;28;20043;-67
2021/01/04 06:42:25;;;;;;;29.35;16.48;;;3.40;75.30;;;;;;4981569;28;20027;-67
2021/01/04 06:45:14;;;;;;;31.90;16.05;;;3.40;75.30;;;;;;4982408;28;20137;-66
2021/01/04 06:47:40;;;;;;;34.30;16.58;;;3.40;75.40;;;;;;4981398;28;20035;-67
2021/01/04 06:50:11;;;;;;;31.75;16.50;;;3.40;75.40;;;;;;4981767;28;20041;-67
2021/01/04 06:52:37;;;;;;;33.88;16.70;;;3.40;75.40;;;;;;4980968;28;20030;-67
2021/01/04 06:55:17;;;;;;;29.25;15.88;;;3.40;75.30;;;;;;4982158;28;20833;-67
2021/01/04 06:58:25;;;;;;;27.88;15.52;;;3.40;75.40;;;;;;4981965;28;20047;-66
2021/01/04 07:01:22;;;;;;;30.25;15.25;;;3.40;75.30;;;;;;4986490;28;20118;-67
2021/01/04 07:04:27;;;;;;;29.35;15.38;;;3.40;75.30;;;;;;4979578;28;20075;-67
2021/01/04 07:07:08;;;;;;;;;;;3.40;75.30;;;;;;4979164;28;20031;-66
2021/01/04 07:10:01;;;;;;;27.75;14.82;;;3.40;75.30;;;;;;4982430;28;19914;-66
2021/01/04 07:13:02;;;;;;;28.75;15.25;;;3.40;75.20;;;;;;4982035;28;20042;-65
2021/01/04 07:15:30;;;;;;;44.47;21.20;;;3.40;75.30;;;;;;4982875;28;20027;-67
2021/01/04 07:18:07;;;;;;;39.42;20.45;;;3.40;75.30;;;;;;4982583;28;20026;-67
2021/01/04 07:20:39;;;;;;;34.13;17.40;;;3.40;75.30;;;;;;4980636;28;20183;-67
2021/01/04 07:23:09;;;;;;;30.77;16.33;;;3.40;75.30;;;;;;4980699;28;20687;-66
2021/01/04 07:26:07;;;;;;;27.45;14.90;;;3.30;75.30;;;;;;4974116;28;20391;-67
2021/01/04 07:28:39;;;;;;;25.80;13.93;;;3.30;75.30;;;;;;4977470;28;20039;-66
2021/01/04 07:31:09;;;;;;;33.25;18.75;;;3.30;75.30;;;;;;4979062;28;20046;-67
2021/01/04 07:34:17;;;;;;;36.05;19.95;;;3.30;75.30;;;;;;4969157;28;20037;-67
2021/01/04 07:37:26;;;;;;;29.38;17.10;;;3.40;75.20;;;;;;4964174;28;20115;-67
2021/01/04 07:39:58;;;;;;;24.27;13.88;;;3.40;75.10;;;;;;4976648;28;20076;-67
2021/01/04 07:42:48;;;;;;;25.35;13.55;;;3.40;75.10;;;;;;4979923;28;20034;-67
2021/01/04 07:45:45;;;;;;;27.38;14.68;;;3.40;74.80;;;;;;4979234;28;20043;-67
2021/01/04 07:48:10;;;;;;;29.13;16.13;;;3.30;74.60;;;;;;4978314;28;20405;-67
2021/01/04 07:50:54;;;;;;;28.00;15.35;;;3.30;74.80;;;;;;4977845;28;20031;-67
2021/01/04 07:53:41;;;;;;;24.98;14.52;;;3.30;74.80;;;;;;4978696;28;20069;-66
2021/01/04 07:56:44;;;;;;;26.83;14.38;;;3.30;74.80;;;;;;4979304;28;20077;-67
2021/01/04 07:59:38;;;;;;;26.92;13.95;;;3.30;74.80;;;;;;4978342;28;20099;-67
2021/01/04 08:02:10;;;;;;;26.42;14.57;;;3.20;74.90;;;;;;4977189;28;20089;-67
2021/01/04 08:05:13;;;;;;;26.27;14.63;;;3.20;74.90;;;;;;4967160;28;20033;-65
2021/01/04 08:07:57;;;;;;;22.45;12.52;;;3.20;75.00;;;;;;4978323;28;20031;-67
2021/01/04 08:10:43;;;;;;;24.83;13.77;;;3.20;74.80;;;;;;4973332;28;20038;-66
2021/01/04 08:13:47;;;;;;;24.98;13.60;;;3.20;74.70;;;;;;4982583;28;20043;-67
2021/01/04 08:16:31;;;;;;;19.60;11.70;;;3.20;74.70;;;;;;4976666;28;20043;-67
2021/01/04 08:19:01;;;;;;;24.02;13.45;;;3.20;74.60;;;;;;4971721;28;20394;-65
2021/01/04 08:21:57;;;;;;;21.88;12.18;;;3.20;74.60;;;;;;4991241;23;20061;-66
2021/01/04 08:24:35;;;;;;;20.63;11.75;;;3.20;74.20;;;;;;5041988;23;20050;-65
2021/01/04 08:27:15;;;;;;;16.20;9.88;;;3.20;74.30;;;;;;5034267;28;20390;-65
2021/01/04 08:29:59;;;;;;;19.45;11.00;;;3.20;73.80;;;;;;5021577;28;20026;-66
2021/01/04 08:32:51;;;;;;;20.15;11.38;;;3.20;73.60;;;;;;5019123;28;20033;-66
2021/01/04 08:35:29;;;;;;;24.50;13.43;;;3.10;73.60;;;;;;4998848;28;20029;-66
2021/01/04 08:37:58;;;;;;;21.13;12.38;;;3.10;73.90;;;;;;4996387;28;20046;-66
2021/01/04 08:40:34;;;;;;;20.67;11.85;;;3.10;74.10;;;;;;4993971;28;20575;-65
2021/01/04 08:43:09;;;;;;;18.63;11.30;;;3.20;74.00;;;;;;5001607;28;20038;-65
2021/01/04 08:45:45;;;;;;;20.38;12.77;;;3.20;74.00;;;;;;4998482;28;20069;-65
2021/01/04 08:48:18;;;;;;;22.98;12.32;;;3.20;73.90;;;;;;4999300;28;20398;-65
2021/01/04 08:51:06;;;;;;;22.70;13.07;;;3.20;73.80;;;;;;4979834;28;20045;-66
2021/01/04 08:53:32;;;;;;;21.67;12.73;;;3.20;73.80;;;;;;5002970;28;20502;-65
2021/01/04 08:56:35;;;;;;;21.88;12.90;;;3.20;73.90;;;;;;4997874;28;20448;-66
2021/01/04 08:59:22;;;;;;;24.73;13.85;;;3.20;73.60;;;;;;5012512;28;20124;-66
2021/01/04 09:01:54;;;;;;;24.95;13.95;;;3.20;73.70;;;;;;5002797;28;20125;-66
2021/01/04 09:04:37;;;;;;;28.35;15.32;;;3.20;73.80;;;;;;5000591;28;20042;-67
2021/01/04 09:07:19;;;;;;;23.13;13.48;;;3.20;73.60;;;;;;5003351;28;20033;-66
2021/01/04 09:10:19;;;;;;;24.23;13.52;;;3.20;73.60;;;;;;4998292;28;20026;-65
2021/01/04 09:12:48;;;;;;;25.52;14.20;;;3.20;73.30;;;;;;4995057;28;20050;-65
2021/01/04 09:15:22;;;;;;;22.92;13.18;;;3.20;73.60;;;;;;5004851;28;20026;-66
2021/01/04 09:17:59;;;;;;;24.42;13.30;;;3.10;73.30;;;;;;4996057;28;20073;-65
2021/01/04 09:20:31;;;;;;;25.23;13.63;;;3.10;73.40;;;;;;4998608;28;20034;-66
2021/01/04 09:23:24;;;;;;;25.40;13.85;;;3.10;73.50;;;;;;5015177;28;20397;-65
2021/01/04 09:26:02;;;;;;;24.42;14.77;;;3.10;73.20;;;;;;4996500;28;20038;-65
2021/01/04 09:28:41;;;;;;;24.40;13.82;;;3.10;73.50;;;;;;4998225;28;20086;-66
2021/01/04 09:31:07;;;;;;;23.48;13.05;;;3.00;73.40;;;;;;5013366;28;20031;-66
2021/01/04 09:33:43;;;;;;;22.80;12.90;;;3.00;73.40;;;;;;5002836;28;20158;-66
2021/01/04 09:36:09;;;;;;;22.75;12.77;;;3.00;73.30;;;;;;4995171;28;20042;-66
2021/01/04 09:38:35;;;;;;;23.98;13.35;;;3.00;73.40;;;;;;4996348;28;20045;-65
2021/01/04 09:41:06;;;;;;;23.80;13.75;;;2.90;73.40;;;;;;4995710;28;20084;-66
2021/01/04 09:43:34;;;;;;;24.92;13.13;;;2.90;73.40;;;;;;4995703;28;20684;-66
2021/01/04 09:46:35;;;;;;;23.85;13.48;;;2.90;73.40;;;;;;4994881;28;20034;-65
2021/01/04 09:49:06;;;;;;;25.67;13.70;;;2.80;73.40;;;;;;4999959;28;20056;-67
2021/01/04 09:51:40;;;;;;;24.23;13.48;;;2.80;73.50;;;;;;4993640;28;20030;-66
2021/01/04 09:54:08;;;;;;;28.70;14.85;;;2.80;73.60;;;;;;4995996;28;20468;-66
2021/01/04 09:56:37;;;;;;;26.48;14.25;;;2.80;73.50;;;;;;4996323;28;20038;-66
2021/01/04 09:59:12;;;;;;;25.60;14.65;;;2.70;74.20;;;;;;5002330;28;20738;-66
2021/01/04 10:01:45;;;;;;;27.23;14.85;;;2.70;73.40;;;;;;4994133;28;20034;-66
2021/01/04 10:04:11;;;;;;;27.92;14.90;;;2.60;73.60;;;;;;4999896;28;20034;-66
2021/01/04 10:06:40;;;;;;;26.63;14.68;;;2.60;73.80;;;;;;4993635;28;20393;-66
2021/01/04 10:09:13;;;;;;;26.92;15.23;;;2.60;73.90;;;;;;4994729;28;20042;-65
2021/01/04 10:11:39;;;;;;;26.60;15.00;;;2.50;74.00;;;;;;4993798;28;20041;-65
2021/01/04 10:14:12;;;;;;;28.95;15.38;;;2.50;74.10;;;;;;4994697;28;20042;-65
2021/01/04 10:16:42;;;;;;;27.67;14.63;;;2.60;74.30;;;;;;4995361;28;20465;-65
2021/01/04 10:19:23;;;;;;;31.33;16.95;;;2.50;74.20;;;;;;4998716;28;20061;-64
2021/01/04 10:21:55;;;;;;;29.33;15.35;;;2.50;74.30;;;;;;5000115;28;20046;-65
2021/01/04 10:24:26;;;;;;;30.98;16.45;;;2.60;74.40;;;;;;4995436;28;20070;-66
2021/01/04 10:26:53;;;;;;;30.45;15.77;;;2.60;74.40;;;;;;4997425;28;20034;-64
2021/01/04 10:29:22;;;;;;;28.23;15.88;;;2.60;74.40;;;;;;4997422;28;20069;-64
2021/01/04 10:31:51;;;;;;;27.63;15.70;;;2.60;74.30;;;;;;4997258;28;20057;-65
2021/01/04 10:34:20;;;;;;;30.15;15.82;;;2.70;74.50;;;;;;4996978;28;20057;-65
2021/01/04 10:37:02;;;;;;;30.05;15.40;;;2.70;74.30;;;;;;4998109;28;20055;-63
2021/01/04 10:39:35;;;;;;;28.63;16.27;;;2.70;74.30;;;;;;4996583;28;20040;-65
2021/01/04 10:42:08;;;;;;;26.77;15.48;;;2.70;74.20;;;;;;4997169;28;20042;-65
2021/01/04 10:44:34;;;;;;;28.65;15.32;;;2.70;74.10;;;;;;5002174;28;20030;-65
2021/01/04 10:47:17;;;;;;;29.42;15.25;;;2.70;74.10;;;;;;4996671;28;20046;-65
2021/01/04 10:49:43;;;;;;;30.02;15.18;;;2.70;73.90;;;;;;4996428;28;20038;-65
2021/01/04 10:52:22;;;;;;;32.92;17.52;;;2.70;74.00;;;;;;4996461;28;20038;-65
2021/01/04 10:54:48;;;;;;;31.15;16.83;;;2.70;74.00;;;;;;5003618;28;20160;-66
2021/01/04 10:57:34;;;;;;;29.73;16.60;;;2.70;74.10;;;;;;4997511;28;20121;-65
2021/01/04 11:00:13;;;;;;;30.98;17.10;;;2.70;73.70;;;;;;4997192;28;20065;-66
2021/01/04 11:02:44;;;;;;;28.85;15.18;;;2.60;73.70;;;;;;4995305;28;20030;-65
2021/01/04 11:05:12;;;;;;;32.67;18.45;;;2.60;73.90;;;;;;4993263;28;20169;-65
2021/01/04 11:07:38;;;;;;;32.63;17.88;;;2.60;74.00;;;;;;4994556;28;20062;-65
2021/01/04 11:10:25;;;;;;;33.35;17.58;;;2.60;74.10;;;;;;4997433;28;20122;-65
2021/01/04 11:12:54;;;;;;;32.30;16.45;;;2.60;73.90;;;;;;4995347;28;20046;-65
2021/01/04 11:15:29;;;;;;;28.00;16.05;;;2.60;74.20;;;;;;4996998;28;20034;-66
2021/01/04 11:17:58;;;;;;;;;;;2.60;74.20;;;;;;4998167;28;20559;-65
2021/01/04 11:20:24;;;;;;;26.40;15.60;;;2.60;74.20;;;;;;4997333;28;19917;-65
2021/01/04 11:23:00;;;;;;;26.48;14.98;;;2.60;74.10;;;;;;5003412;28;20042;-64
2021/01/04 11:25:26;;;;;;;29.08;15.75;;;2.60;73.90;;;;;;4998618;28;20034;-66
2021/01/04 11:27:52;;;;;;;30.90;17.00;;;2.70;74.10;;;;;;4999591;28;20038;-65
2021/01/04 11:30:18;;;;;;;31.25;16.10;;;2.70;74.10;;;;;;5001038;28;20034;-65
2021/01/04 11:32:43;;;;;;;29.92;16.67;;;2.70;74.10;;;;;;5000259;28;20042;-65
2021/01/04 11:35:09;;;;;;;35.05;18.42;;;2.70;73.90;;;;;;5001132;28;20034;-65
2021/01/04 11:37:35;;;;;;;29.15;16.52;;;2.70;73.90;;;;;;5007429;28;20575;-65
2021/01/04 11:40:01;;;;;;;32.50;17.55;;;2.60;73.80;;;;;;4999272;28;20045;-66
2021/01/04 11:42:26;;;;;;;29.92;16.55;;;2.70;73.90;;;;;;5007239;28;20026;-66
2021/01/04 11:44:52;;;;;;;27.73;15.95;;;2.60;74.00;;;;;;5016363;28;20176;-65
2021/01/04 11:47:18;;;;;;;29.60;16.38;;;2.70;74.10;;;;;;5001050;28;20080;-65
2021/01/04 11:49:44;;;;;;;31.15;17.52;;;2.70;74.10;;;;;;4999908;28;20027;-65
2021/01/04 11:52:11;;;;;;;29.30;16.08;;;2.70;74.10;;;;;;5000077;28;20501;-65
2021/01/04 11:54:40;;;;;;;30.83;17.00;;;2.70;73.90;;;;;;4999173;28;20109;-65
2021/01/04 11:57:06;;;;;;;28.02;15.73;;;2.70;73.70;;;;;;4998921;28;20497;-64
2021/01/04 11:59:33;;;;;;;29.80;16.05;;;2.70;73.80;;;;;;5015765;28;20030;-65
2021/01/04 12:01:59;;;;;;;31.83;16.73;;;2.70;73.70;;;;;;5007468;28;20045;-66
2021/01/04 12:04:25;;;;;;;31.17;16.65;;;2.70;73.60;;;;;;5015384;28;20038;-65
2021/01/04 12:06:50;;;;;;;27.67;15.95;;;2.70;73.60;;;;;;4998559;28;20406;-65
2021/01/04 12:09:17;;;;;;;29.75;15.73;;;2.70;73.80;;;;;;4999029;28;20583;-66
2021/01/04 12:11:46;;;;;;;30.10;15.55;;;2.70;73.80;;;;;;5013071;28;20046;-66
2021/01/04 12:14:12;;;;;;;27.75;15.77;;;2.70;73.80;;;;;;5000921;28;20064;-66
2021/01/04 12:16:38;;;;;;;30.38;15.95;;;2.70;73.70;;;;;;5004951;28;20525;-66
2021/01/04 12:19:05;;;;;;;26.70;15.38;;;2.70;73.80;;;;;;5005119;28;20040;-66
2021/01/04 12:21:32;;;;;;;26.83;15.30;;;2.70;73.60;;;;;;4999795;28;20045;-66
2021/01/04 12:23:57;;;;;;;27.58;14.95;;;2.70;73.60;;;;;;4998351;28;20030;-65
2021/01/04 12:26:23;;;;;;;26.25;14.48;;;2.70;73.60;;;;;;4997941;28;20041;-65
2021/01/04 12:28:49;;;;;;;28.98;16.17;;;2.70;73.60;;;;;;4999585;28;20030;-64
2021/01/04 12:31:16;;;;;;;29.65;15.95;;;2.70;73.60;;;;;;5005938;28;20034;-65
2021/01/04 12:33:42;;;;;;;30.65;15.95;;;2.70;73.70;;;;;;5004977;28;20037;-65
2021/01/04 12:36:24;;;;;;;31.02;16.98;;;2.70;73.70;;;;;;5005846;28;20112;-65
2021/01/04 12:38:50;;;;;;;31.27;16.42;;;2.70;74.50;;;;;;4997441;28;20065;-66
2021/01/04 12:41:17;;;;;;;31.95;17.20;;;2.70;73.60;;;;;;5000026;28;20481;-66
2021/01/04 12:43:44;;;;;;;30.73;16.55;;;2.70;73.60;;;;;;4999382;28;20039;-65
2021/01/04 12:46:12;;;;;;;30.08;17.58;;;2.70;73.40;;;;;;4997557;28;20042;-66
2021/01/04 12:48:38;;;;;;;30.90;17.30;;;2.70;73.40;;;;;;4999082;28;20085;-65
2021/01/04 12:51:05;;;;;;;32.10;17.83;;;2.70;73.60;;;;;;4997591;28;20034;-65
2021/01/04 12:53:31;;;;;;;35.22;18.35;;;2.70;73.60;;;;;;4998072;28;20038;-66
2021/01/04 12:55:56;;;;;;;32.70;18.13;;;2.70;73.60;;;;;;4998544;28;20034;-66
2021/01/04 12:58:22;;;;;;;30.83;17.08;;;2.70;73.40;;;;;;4997293;28;20057;-66
2021/01/04 13:00:50;;;;;;;31.52;18.30;;;2.70;73.50;;;;;;4997182;28;20041;-66
2021/01/04 13:03:16;;;;;;;33.47;18.05;;;2.70;73.50;;;;;;5014566;28;20035;-66
2021/01/04 13:05:42;;;;;;;54.03;30.83;;;2.70;73.40;;;;;;4997070;28;20041;-65
2021/01/04 13:08:07;;;;;;;46.45;29.05;;;2.70;73.40;;;;;;5013298;28;20030;-66
2021/01/04 13:10:33;;;;;;;38.40;22.00;;;2.60;73.40;;;;;;4995205;28;20027;-66
2021/01/04 13:12:59;;;;;;;36.58;19.83;;;2.60;74.30;;;;;;4997447;28;20809;-66
2021/01/04 13:15:24;;;;;;;38.13;20.60;;;2.60;73.60;;;;;;4997937;28;20034;-66
2021/01/04 13:17:51;;;;;;;41.00;22.25;;;2.60;73.70;;;;;;5013703;28;20042;-66
2021/01/04 13:20:17;;;;;;;44.42;24.00;;;2.60;73.80;;;;;;4998712;28;20034;-66
2021/01/04 13:22:43;;;;;;;43.20;24.13;;;2.60;74.00;;;;;;4999416;28;20053;-66
2021/01/04 13:25:10;;;;;;;42.40;21.83;;;2.60;74.00;;;;;;4998320;28;20065;-65